Labarden, Argentina
Current Conditions -  °F | °C
As of 12:00 AM on Saturday 25 Oct 2014 (Local Time) from SAZM Reporting Station
Overcast Overcast  
Wind Chill: 61°   Ceiling: 1000
Heat Index: 61°   Visibility: 4mi
Dew Point: 59°   Wind: 6mph
Humidity: 94%   Direction: 50°NE
Pressure: 30"   Gusts: NA
Location:  36.95°S, 58.11°W
Report Text: SAZM 250300Z 05005KT 7000 SCT005 OVC01016/15 Q1016
Loading
Personal Weather Stations






























Interactive Weather Map
Tropical Storm Tracking
New forecast layout! Learn more

10-Day Weather Forecast

Advertisements
Track Severe Weather on mobile